createdAt,value
2018-11-26T00:00:59.602Z,11.87
2018-11-26T00:03:30.730Z,11.40
2018-11-26T00:06:02.092Z,11.07
2018-11-26T00:08:34.260Z,11.23
2018-11-26T00:11:33.381Z,12.00
2018-11-26T00:14:04.615Z,11.20
2018-11-26T00:16:35.974Z,12.00
2018-11-26T00:19:07.366Z,11.80
2018-11-26T00:21:38.638Z,11.67
2018-11-26T00:24:09.780Z,11.03
2018-11-26T00:26:41.130Z,11.17
2018-11-26T00:29:12.566Z,10.57
2018-11-26T00:31:43.938Z,10.90
2018-11-26T00:34:15.044Z,10.30
2018-11-26T00:36:46.353Z,9.80
2018-11-26T00:39:17.540Z,10.07
2018-11-26T00:41:48.840Z,9.83
2018-11-26T00:44:20.349Z,8.83
2018-11-26T00:46:51.881Z,9.47
2018-11-26T00:49:23.165Z,9.73
2018-11-26T00:51:54.801Z,8.73
2018-11-26T00:54:26.086Z,9.10
2018-11-26T00:56:57.503Z,9.73
2018-11-26T00:59:29.133Z,9.50
2018-11-26T01:02:00.829Z,9.70
2018-11-26T01:04:32.266Z,9.73
2018-11-26T01:07:03.743Z,9.50
2018-11-26T01:09:35.354Z,9.60
2018-11-26T01:12:06.942Z,9.43
2018-11-26T01:14:38.329Z,8.93
2018-11-26T01:17:10.048Z,9.30
2018-11-26T01:19:41.334Z,8.17
2018-11-26T01:22:12.357Z,9.07
2018-11-26T01:24:43.690Z,8.47
2018-11-26T01:27:15.143Z,8.50
2018-11-26T01:29:46.381Z,7.80
2018-11-26T01:32:17.867Z,7.97
2018-11-26T01:34:49.186Z,8.77
2018-11-26T01:37:20.627Z,7.73
2018-11-26T01:39:52.084Z,8.70
2018-11-26T01:42:23.468Z,8.27
2018-11-26T01:44:54.858Z,8.30
2018-11-26T01:47:26.147Z,8.73
2018-11-26T01:49:57.669Z,8.73
2018-11-26T01:52:29.128Z,8.80
2018-11-26T01:55:00.344Z,7.83
2018-11-26T01:57:31.918Z,8.57
2018-11-26T02:00:03.599Z,8.23
2018-11-26T02:02:35.125Z,7.63
2018-11-26T02:05:06.848Z,8.00
2018-11-26T02:07:38.500Z,8.27
2018-11-26T02:10:16.505Z,8.10
2018-11-26T02:12:47.953Z,7.43
2018-11-26T02:15:34.974Z,8.03
2018-11-26T02:18:06.846Z,8.37
2018-11-26T02:20:38.218Z,8.37
2018-11-26T02:23:10.195Z,8.40
2018-11-26T02:25:41.660Z,8.80
2018-11-26T02:28:13.353Z,9.10
2018-11-26T02:30:44.992Z,8.80
2018-11-26T02:33:16.617Z,8.97
2018-11-26T02:35:47.861Z,8.20
2018-11-26T02:38:25.604Z,8.50
2018-11-26T02:40:56.901Z,8.63
2018-11-26T02:43:28.899Z,9.60
2018-11-26T02:46:00.127Z,10.07
2018-11-26T02:48:31.591Z,9.77
2018-11-26T02:51:02.596Z,9.27
2018-11-26T02:53:34.052Z,9.50
2018-11-26T02:56:05.763Z,9.70
2018-11-26T02:58:37.116Z,9.23
2018-11-26T03:01:08.731Z,9.20
2018-11-26T03:03:40.354Z,9.90
2018-11-26T03:06:11.974Z,9.97
2018-11-26T03:08:43.685Z,9.87
2018-11-26T03:11:14.883Z,10.23
2018-11-26T03:13:46.052Z,9.73
2018-11-26T03:16:17.497Z,9.50
2018-11-26T03:18:48.869Z,10.60
2018-11-26T03:21:20.055Z,8.97
2018-11-26T03:23:51.313Z,9.13
2018-11-26T03:26:22.579Z,9.40
2018-11-26T03:28:53.929Z,10.40
2018-11-26T03:31:25.313Z,9.63
2018-11-26T03:33:56.585Z,11.00
2018-11-26T03:36:28.179Z,10.10
2018-11-26T03:38:59.436Z,10.00
2018-11-26T03:41:30.683Z,9.03
2018-11-26T03:44:02.330Z,9.87
2018-11-26T03:46:33.818Z,9.30
2018-11-26T03:49:05.269Z,9.83
2018-11-26T03:51:36.616Z,9.10
2018-11-26T03:54:08.191Z,9.47
2018-11-26T03:56:39.477Z,9.63
2018-11-26T03:59:10.843Z,8.97
2018-11-26T04:01:42.396Z,8.60
2018-11-26T04:04:14.377Z,8.80
2018-11-26T04:06:45.898Z,8.80
2018-11-26T04:09:17.045Z,9.33
2018-11-26T04:11:48.792Z,9.17
2018-11-26T04:14:20.255Z,8.93
2018-11-26T04:16:51.689Z,9.10
2018-11-26T04:19:23.290Z,9.63
2018-11-26T04:21:54.496Z,9.53
2018-11-26T04:24:25.974Z,9.20
2018-11-26T04:26:58.539Z,8.63
2018-11-26T04:29:28.724Z,9.50
2018-11-26T04:32:00.092Z,9.80
2018-11-26T04:34:31.618Z,10.23
2018-11-26T04:37:03.114Z,9.70
2018-11-26T04:39:34.397Z,9.90
2018-11-26T04:42:05.669Z,10.47
2018-11-26T04:44:37.150Z,10.60
2018-11-26T04:47:09.209Z,10.43
2018-11-26T04:49:40.669Z,9.60
2018-11-26T04:52:11.799Z,9.93
2018-11-26T04:54:42.974Z,9.57
2018-11-26T04:57:14.618Z,10.80
2018-11-26T04:59:46.186Z,10.13
2018-11-26T05:02:18.017Z,10.90
2018-11-26T05:04:49.252Z,10.57
2018-11-26T05:07:20.544Z,12.10
2018-11-26T05:09:51.967Z,11.50
2018-11-26T05:12:23.475Z,11.63
2018-11-26T05:14:54.977Z,12.67
2018-11-26T05:17:26.189Z,11.77
2018-11-26T05:19:57.633Z,11.90
2018-11-26T05:22:29.266Z,12.47
2018-11-26T05:25:00.591Z,11.87
2018-11-26T05:27:31.665Z,9.33
2018-11-26T05:30:03.188Z,11.23
2018-11-26T05:32:34.467Z,13.10
2018-11-26T05:35:07.068Z,13.77
2018-11-26T05:37:38.783Z,11.30
2018-11-26T05:40:12.295Z,9.73
2018-11-26T05:42:43.957Z,9.47
2018-11-26T05:45:16.948Z,10.13
2018-11-26T05:47:48.633Z,9.47
2018-11-26T05:50:20.242Z,13.97
2018-11-26T05:52:51.333Z,10.33
2018-11-26T05:55:22.693Z,9.60
2018-11-26T05:57:54.325Z,9.97
2018-11-26T06:00:29.010Z,13.23
2018-11-26T06:03:00.412Z,9.63
2018-11-26T06:05:31.577Z,8.90
2018-11-26T06:08:02.903Z,9.23
2018-11-26T06:10:34.476Z,9.20
2018-11-26T06:13:06.531Z,9.53
2018-11-26T06:15:37.954Z,9.50
2018-11-26T06:18:09.257Z,9.37
2018-11-26T06:20:40.792Z,9.30
2018-11-26T06:23:12.604Z,10.70
2018-11-26T06:25:43.844Z,10.87
2018-11-26T06:28:15.524Z,15.83
2018-11-26T06:30:47.056Z,24.40
2018-11-26T06:33:18.533Z,10.17
2018-11-26T06:35:49.929Z,9.37
2018-11-26T06:38:21.148Z,8.87
2018-11-26T06:40:52.896Z,9.07
2018-11-26T06:43:24.695Z,15.90
2018-11-26T06:45:56.122Z,14.67
2018-11-26T06:48:27.388Z,11.87
2018-11-26T06:50:58.815Z,10.53
2018-11-26T06:53:29.981Z,7.63
2018-11-26T06:56:01.505Z,7.97
2018-11-26T06:58:32.845Z,8.07
2018-11-26T07:01:04.317Z,7.53
2018-11-26T07:03:36.172Z,6.73
2018-11-26T07:06:07.680Z,7.17
2018-11-26T07:08:39.566Z,7.37
2018-11-26T07:11:11.222Z,7.10
2018-11-26T07:13:42.571Z,6.60
2018-11-26T07:16:14.024Z,7.10
2018-11-26T07:18:45.410Z,5.73
2018-11-26T07:21:16.734Z,5.27
2018-11-26T07:23:47.932Z,7.60
2018-11-26T07:26:19.239Z,7.57
2018-11-26T07:28:50.459Z,6.07
2018-11-26T07:31:21.904Z,10.77
2018-11-26T07:33:53.232Z,6.83
2018-11-26T07:36:24.829Z,5.80
2018-11-26T07:38:56.272Z,9.50
2018-11-26T07:41:27.521Z,8.80
2018-11-26T07:43:58.946Z,9.47
2018-11-26T07:46:30.124Z,7.57
2018-11-26T07:49:01.285Z,5.20
2018-11-26T07:51:32.377Z,5.70
2018-11-26T07:54:03.660Z,6.23
2018-11-26T07:56:35.118Z,5.30
2018-11-26T07:59:06.778Z,5.60
2018-11-26T08:01:38.649Z,4.50
2018-11-26T08:04:10.112Z,4.67
2018-11-26T08:06:41.322Z,4.40
2018-11-26T08:09:12.642Z,4.37
2018-11-26T08:11:43.878Z,4.47
2018-11-26T08:14:15.272Z,4.60
2018-11-26T08:16:46.448Z,4.27
2018-11-26T08:19:17.998Z,4.37
2018-11-26T08:21:49.318Z,4.57
2018-11-26T08:24:20.769Z,4.30
2018-11-26T08:26:52.267Z,4.43
2018-11-26T08:29:23.692Z,4.60
2018-11-26T08:31:55.247Z,3.63
2018-11-26T08:34:26.726Z,3.77
2018-11-26T08:37:03.113Z,4.13
2018-11-26T08:39:36.563Z,4.00
2018-11-26T08:42:13.114Z,4.27
2018-11-26T08:44:46.786Z,4.27
2018-11-26T08:47:19.189Z,3.67
2018-11-26T08:49:50.562Z,3.60
2018-11-26T08:52:22.111Z,4.43
2018-11-26T08:54:53.414Z,3.90
2018-11-26T08:57:24.643Z,4.77
2018-11-26T08:59:56.004Z,4.47
2018-11-26T09:02:31.962Z,5.17
2018-11-26T09:05:08.938Z,5.47
2018-11-26T09:07:40.291Z,5.67
2018-11-26T09:10:11.780Z,7.83
2018-11-26T09:12:43.916Z,10.90
2018-11-26T09:15:15.345Z,12.17
2018-11-26T09:17:46.818Z,13.70
2018-11-26T09:20:18.450Z,13.37
2018-11-26T09:22:49.711Z,13.70
2018-11-26T09:25:21.073Z,14.20
2018-11-26T09:27:52.623Z,14.07
2018-11-26T09:30:24.129Z,13.70
2018-11-26T09:32:55.510Z,15.10
2018-11-26T09:35:27.157Z,16.00
2018-11-26T09:37:58.729Z,14.33
2018-11-26T09:40:29.844Z,14.17
2018-11-26T09:43:01.326Z,12.50
2018-11-26T09:45:35.975Z,11.97
2018-11-26T09:48:04.509Z,13.37
2018-11-26T09:50:35.778Z,12.20
2018-11-26T09:53:07.208Z,13.83
2018-11-26T09:55:38.497Z,13.90
2018-11-26T09:58:10.118Z,13.37
2018-11-26T10:00:41.968Z,15.40
2018-11-26T10:03:13.593Z,15.03
2018-11-26T10:05:45.250Z,13.70
2018-11-26T10:08:16.537Z,13.57
2018-11-26T10:10:47.727Z,13.40
2018-11-26T10:13:19.442Z,13.37
2018-11-26T10:15:50.695Z,14.40
2018-11-26T10:18:23.101Z,13.43
2018-11-26T10:20:54.593Z,13.47
2018-11-26T10:23:26.038Z,13.80
2018-11-26T10:25:57.210Z,13.23
2018-11-26T10:28:28.798Z,13.20
2018-11-26T10:30:59.841Z,15.13
2018-11-26T10:33:31.333Z,14.30
2018-11-26T10:36:02.885Z,13.37
2018-11-26T10:38:34.661Z,12.83
2018-11-26T10:41:06.226Z,14.50
2018-11-26T10:43:37.508Z,14.17
2018-11-26T10:46:08.830Z,15.13
2018-11-26T10:48:40.201Z,15.53
2018-11-26T10:51:11.661Z,14.53
2018-11-26T10:53:43.152Z,14.37
2018-11-26T10:56:14.288Z,14.27
2018-11-26T10:58:45.458Z,14.30
2018-11-26T11:01:21.941Z,13.20
2018-11-26T11:03:53.861Z,13.70
2018-11-26T11:06:25.633Z,13.13
2018-11-26T11:08:56.970Z,12.70
2018-11-26T11:11:28.636Z,9.87
2018-11-26T11:14:00.190Z,9.43
2018-11-26T11:16:31.942Z,9.03
2018-11-26T11:19:03.779Z,10.50
2018-11-26T11:21:35.192Z,10.33
2018-11-26T11:24:06.746Z,10.33
2018-11-26T11:26:38.259Z,10.10
2018-11-26T11:29:09.667Z,9.93
2018-11-26T11:31:41.254Z,9.47
2018-11-26T11:34:12.428Z,8.80
2018-11-26T11:36:43.874Z,9.83
2018-11-26T11:39:15.341Z,10.40
2018-11-26T11:41:46.495Z,9.77
2018-11-26T11:44:21.830Z,9.47
2018-11-26T11:46:53.256Z,9.87
2018-11-26T11:49:24.572Z,10.03
2018-11-26T11:51:56.240Z,10.53
2018-11-26T11:54:27.616Z,10.10
2018-11-26T11:56:58.958Z,10.33
2018-11-26T11:59:30.525Z,9.63
2018-11-26T12:02:01.994Z,10.30
2018-11-26T12:04:33.686Z,10.20
2018-11-26T12:07:05.000Z,10.00
2018-11-26T12:09:36.495Z,10.47
2018-11-26T12:12:08.121Z,11.80
2018-11-26T12:14:39.857Z,14.23
2018-11-26T12:17:11.171Z,14.47
2018-11-26T12:19:42.491Z,14.53
2018-11-26T12:22:14.174Z,14.20
2018-11-26T12:24:45.718Z,14.53
2018-11-26T12:27:16.979Z,15.10
2018-11-26T12:29:48.231Z,14.13
2018-11-26T12:32:19.775Z,14.20
2018-11-26T12:34:51.324Z,12.70
2018-11-26T12:37:22.584Z,13.63
2018-11-26T12:39:53.809Z,12.80
2018-11-26T12:42:25.493Z,14.73
2018-11-26T12:44:56.944Z,11.97
2018-11-26T12:47:28.272Z,11.50
2018-11-26T12:49:59.416Z,10.60
2018-11-26T12:52:31.043Z,12.00
2018-11-26T12:55:02.192Z,10.90
2018-11-26T12:57:33.483Z,11.10
2018-11-26T13:00:04.750Z,11.23
2018-11-26T13:02:36.343Z,10.97
2018-11-26T13:05:12.522Z,11.13
2018-11-26T13:07:43.946Z,11.13
2018-11-26T13:10:18.028Z,11.43
2018-11-26T13:12:50.104Z,10.80
2018-11-26T13:15:24.115Z,11.13
2018-11-26T13:17:55.440Z,10.37
2018-11-26T13:20:28.405Z,10.80
2018-11-26T13:23:00.045Z,10.07
2018-11-26T13:25:33.775Z,11.23
2018-11-26T13:28:05.973Z,10.87
2018-11-26T13:30:46.523Z,10.80
2018-11-26T13:33:20.338Z,11.27
2018-11-26T13:35:52.309Z,11.07
2018-11-26T13:38:24.810Z,10.97
2018-11-26T13:40:56.759Z,11.60
2018-11-26T13:43:28.906Z,11.63
2018-11-26T13:45:59.852Z,12.27
2018-11-26T13:48:31.597Z,11.50
2018-11-26T13:51:03.341Z,12.33
2018-11-26T13:53:34.946Z,10.90
2018-11-26T13:56:06.640Z,11.80
2018-11-26T13:58:38.138Z,11.63
2018-11-26T14:01:09.678Z,13.23
2018-11-26T14:03:41.144Z,12.40
2018-11-26T14:06:12.840Z,12.53
2018-11-26T14:08:44.237Z,12.30
2018-11-26T14:11:15.436Z,11.77
2018-11-26T14:13:47.122Z,12.30
2018-11-26T14:16:18.611Z,11.80
2018-11-26T14:18:49.982Z,12.27
2018-11-26T14:21:21.356Z,12.67
2018-11-26T14:23:52.838Z,12.30
2018-11-26T14:26:24.261Z,12.43
2018-11-26T14:28:55.381Z,13.53
2018-11-26T14:31:26.863Z,11.97
2018-11-26T14:33:58.385Z,12.73
2018-11-26T14:36:29.824Z,16.17
2018-11-26T14:39:01.579Z,13.83
2018-11-26T14:41:33.342Z,14.00
2018-11-26T14:44:05.155Z,13.30
2018-11-26T14:46:36.714Z,14.27
2018-11-26T14:49:08.522Z,13.33
2018-11-26T14:51:39.945Z,14.80
2018-11-26T14:54:11.510Z,15.33
2018-11-26T14:56:42.693Z,15.70
2018-11-26T14:59:14.298Z,23.43
2018-11-26T15:01:45.678Z,16.80
2018-11-26T15:04:17.091Z,15.00
2018-11-26T15:06:48.660Z,18.93
2018-11-26T15:09:20.041Z,17.80
2018-11-26T15:11:51.950Z,15.53
2018-11-26T15:14:23.598Z,14.93
2018-11-26T15:16:55.110Z,14.67
2018-11-26T15:19:26.483Z,15.67
2018-11-26T15:21:58.271Z,15.60
2018-11-26T15:24:29.564Z,15.70
2018-11-26T15:27:01.128Z,15.87
2018-11-26T15:29:32.402Z,15.20
2018-11-26T15:32:03.818Z,15.73
2018-11-26T15:34:35.073Z,14.17
2018-11-26T15:37:07.107Z,28.13
2018-11-26T15:39:38.926Z,15.77
2018-11-26T15:42:10.322Z,14.47
2018-11-26T15:44:41.605Z,15.63
2018-11-26T15:47:12.999Z,14.53
2018-11-26T15:49:44.304Z,14.57
2018-11-26T15:52:15.652Z,14.63
2018-11-26T15:54:47.079Z,15.33
2018-11-26T15:57:18.487Z,15.40
2018-11-26T15:59:49.860Z,15.10
2018-11-26T16:02:21.263Z,13.17
2018-11-26T16:04:52.700Z,14.60
2018-11-26T16:07:24.259Z,14.33
2018-11-26T16:09:55.943Z,14.17
2018-11-26T16:12:27.270Z,13.97
2018-11-26T16:14:58.605Z,14.53
2018-11-26T16:17:30.196Z,14.87
2018-11-26T16:20:01.832Z,15.63
2018-11-26T16:22:33.845Z,13.97
2018-11-26T16:25:05.520Z,14.73
2018-11-26T16:27:37.395Z,14.00
2018-11-26T16:30:12.809Z,14.90
2018-11-26T16:32:45.737Z,16.70
2018-11-26T16:35:19.968Z,15.00
2018-11-26T16:37:51.477Z,15.13
2018-11-26T16:40:23.248Z,15.43
2018-11-26T16:42:54.838Z,15.50
2018-11-26T16:45:28.608Z,14.70
2018-11-26T16:48:00.428Z,14.80
2018-11-26T16:50:33.564Z,15.63
2018-11-26T16:53:05.543Z,15.50
2018-11-26T16:55:37.100Z,18.00
2018-11-26T16:58:08.808Z,17.33
2018-11-26T17:00:40.502Z,15.63
2018-11-26T17:03:12.664Z,14.67
2018-11-26T17:05:44.709Z,14.83
2018-11-26T17:08:17.088Z,15.33
2018-11-26T17:10:48.893Z,34.53
2018-11-26T17:13:20.311Z,19.23
2018-11-26T17:15:51.647Z,17.37
2018-11-26T17:18:23.039Z,16.93
2018-11-26T17:20:54.466Z,14.27
2018-11-26T17:23:26.529Z,14.77
2018-11-26T17:25:58.113Z,14.23
2018-11-26T17:28:29.942Z,14.63
2018-11-26T17:31:01.445Z,15.03
2018-11-26T17:33:33.122Z,15.37
2018-11-26T17:36:04.782Z,14.73
2018-11-26T17:38:36.487Z,14.57
2018-11-26T17:41:08.283Z,15.07
2018-11-26T17:43:40.007Z,15.60
2018-11-26T17:46:11.428Z,16.93
2018-11-26T17:48:43.279Z,16.20
2018-11-26T17:51:15.194Z,15.70
2018-11-26T17:53:46.671Z,22.83
2018-11-26T17:56:18.512Z,25.03
2018-11-26T17:58:49.881Z,13.67
2018-11-26T18:01:30.760Z,13.50
2018-11-26T18:04:02.843Z,14.37
2018-11-26T18:06:34.409Z,14.73
2018-11-26T18:09:09.533Z,13.93
2018-11-26T18:11:41.285Z,14.53
2018-11-26T18:14:12.916Z,13.70
2018-11-26T18:16:44.870Z,14.10
2018-11-26T18:19:16.455Z,13.97
2018-11-26T18:21:48.011Z,14.20
2018-11-26T18:24:19.756Z,13.77
2018-11-26T18:26:51.573Z,14.43
2018-11-26T18:29:23.249Z,15.20
2018-11-26T18:31:54.692Z,14.30
2018-11-26T18:34:26.674Z,14.27
2018-11-26T18:36:58.346Z,15.23
2018-11-26T18:39:29.903Z,15.30
2018-11-26T18:42:01.658Z,20.17
2018-11-26T18:44:33.261Z,37.93
2018-11-26T18:47:04.970Z,16.77
2018-11-26T18:49:36.995Z,13.93
2018-11-26T18:52:08.686Z,13.93
2018-11-26T18:54:40.318Z,14.10
2018-11-26T18:57:12.016Z,14.73
2018-11-26T18:59:44.106Z,14.77
2018-11-26T19:02:15.735Z,14.80
2018-11-26T19:04:47.228Z,14.40
2018-11-26T19:07:18.794Z,14.83
2018-11-26T19:09:50.704Z,14.70
2018-11-26T19:12:22.612Z,15.87
2018-11-26T19:14:54.186Z,15.33
2018-11-26T19:17:26.142Z,14.43
2018-11-26T19:19:57.821Z,14.93
2018-11-26T19:22:29.275Z,15.53
2018-11-26T19:25:00.939Z,16.10
2018-11-26T19:27:32.641Z,13.83
2018-11-26T19:30:04.303Z,15.33
2018-11-26T19:32:36.084Z,14.93
2018-11-26T19:35:09.456Z,14.57
2018-11-26T19:37:41.365Z,17.70
2018-11-26T19:40:15.859Z,13.57
2018-11-26T19:42:48.143Z,15.97
2018-11-26T19:45:21.282Z,15.27
2018-11-26T19:47:52.483Z,14.07
2018-11-26T19:50:24.329Z,16.07
2018-11-26T19:52:56.719Z,14.63
2018-11-26T19:55:28.584Z,13.77
2018-11-26T19:58:01.108Z,13.50
2018-11-26T20:00:33.128Z,17.23
2018-11-26T20:03:24.767Z,16.90
2018-11-26T20:06:09.341Z,13.03
2018-11-26T20:08:41.548Z,15.03
2018-11-26T20:11:13.740Z,14.07
2018-11-26T20:13:45.679Z,38.37
2018-11-26T20:16:22.061Z,16.00
2018-11-26T20:18:54.208Z,12.43
2018-11-26T20:21:26.427Z,12.43
2018-11-26T20:23:58.072Z,12.80
2018-11-26T20:26:29.677Z,13.10
2018-11-26T20:29:01.170Z,27.10
2018-11-26T20:31:32.957Z,14.30
2018-11-26T20:34:04.700Z,14.27
2018-11-26T20:36:36.717Z,13.80
2018-11-26T20:39:11.099Z,12.93
2018-11-26T20:41:42.525Z,15.20
2018-11-26T20:44:14.244Z,21.80
2018-11-26T20:46:49.169Z,14.03
2018-11-26T20:49:17.569Z,17.07
2018-11-26T20:51:49.352Z,13.53
2018-11-26T20:54:21.744Z,13.30
2018-11-26T20:56:53.595Z,38.17
2018-11-26T20:59:25.682Z,22.17
2018-11-26T21:01:57.195Z,16.67
2018-11-26T21:04:28.905Z,11.80
2018-11-26T21:07:00.595Z,11.60
2018-11-26T21:09:32.108Z,12.13
2018-11-26T21:12:03.694Z,10.97
2018-11-26T21:14:35.432Z,11.10
2018-11-26T21:17:07.075Z,12.33
2018-11-26T21:19:38.877Z,25.27
2018-11-26T21:22:10.718Z,12.77
2018-11-26T21:24:42.711Z,12.77
2018-11-26T21:27:14.248Z,10.77
2018-11-26T21:29:46.022Z,21.17
2018-11-26T21:32:18.020Z,12.80
2018-11-26T21:34:49.870Z,15.43
2018-11-26T21:37:21.567Z,10.80
2018-11-26T21:39:53.543Z,13.27
2018-11-26T21:42:24.969Z,12.77
2018-11-26T21:44:57.071Z,13.53
2018-11-26T21:47:28.812Z,12.13
2018-11-26T21:50:00.488Z,11.40
2018-11-26T21:52:32.089Z,13.47
2018-11-26T21:55:03.557Z,17.77
2018-11-26T21:57:36.582Z,11.57
2018-11-26T22:00:17.811Z,10.87
2018-11-26T22:02:51.671Z,10.07
2018-11-26T22:05:23.890Z,9.80
2018-11-26T22:19:35.885Z,10.90
2018-11-26T22:22:07.912Z,11.37
2018-11-26T22:24:40.783Z,11.60
2018-11-26T22:27:14.039Z,11.87
2018-11-26T22:29:46.850Z,11.43
2018-11-26T22:32:18.706Z,11.13
2018-11-26T22:34:50.434Z,11.60
2018-11-26T22:37:22.207Z,12.53
2018-11-26T22:39:53.883Z,12.17
2018-11-26T22:42:25.287Z,12.83
2018-11-26T22:44:56.857Z,12.23
2018-11-26T22:47:28.510Z,12.83
2018-11-26T22:50:00.387Z,12.60
2018-11-26T22:52:32.696Z,11.70
2018-11-26T22:55:04.535Z,12.87
2018-11-26T22:57:36.303Z,14.30
2018-11-26T23:00:31.562Z,14.13
2018-11-26T23:03:04.063Z,12.63
2018-11-26T23:05:35.477Z,13.33
2018-11-26T23:08:07.185Z,13.33
2018-11-26T23:10:38.612Z,13.43
2018-11-26T23:13:10.799Z,14.10
2018-11-26T23:15:42.401Z,14.47
2018-11-26T23:18:14.034Z,13.27
2018-11-26T23:20:46.166Z,14.93
2018-11-26T23:23:17.743Z,14.57
2018-11-26T23:25:49.458Z,13.80
2018-11-26T23:28:21.093Z,14.87
2018-11-26T23:30:52.652Z,14.80
2018-11-26T23:33:24.422Z,14.07
2018-11-26T23:35:55.911Z,15.03
2018-11-26T23:38:27.415Z,15.77
2018-11-26T23:40:58.915Z,15.17
2018-11-26T23:43:30.335Z,14.77
2018-11-26T23:46:01.708Z,14.90
2018-11-26T23:48:33.007Z,14.53
2018-11-26T23:51:04.532Z,15.73
2018-11-26T23:53:36.059Z,15.80
2018-11-26T23:56:07.599Z,15.70
2018-11-26T23:58:39.137Z,15.77
